| time (UTC) | temp F | wind direction | speed MPH | gust MPH | rain 1hr in | rain 24hr in | rain mn in | humidity % | barometer mb |
| 20260504044541 | 48 | 0 | 1.0 | 4.0 | 0.00 | 0.00 | 0.00 | 59 | 1012.0 |
| 20260504043050 | 48 | 176 | 1.0 | 4.0 | 0.00 | 0.00 | 0.00 | 59 | 1011.9 |
| 20260504041543 | 49 | 159 | 2.0 | 4.0 | 0.00 | 0.00 | 0.00 | 57 | 1011.8 |
| 20260504040048 | 50 | 0 | 0.0 | 3.0 | 0.00 | 0.00 | 0.00 | 56 | 1011.7 |
| 20260504034544 | 50 | 0 | 1.0 | 5.0 | 0.00 | 0.00 | 0.00 | 55 | 1011.7 |
| 20260504033042 | 50 | 188 | 2.0 | 5.0 | 0.00 | 0.00 | 0.00 | 55 | 1011.6 |
| 20260504031547 | 50 | 193 | 4.0 | 6.0 | 0.00 | 0.00 | 0.00 | 54 | 1011.5 |
| 20260504030042 | 51 | 201 | 3.0 | 5.0 | 0.00 | 0.00 | 0.00 | 52 | 1011.5 |
| 20260504024601 | 52 | 0 | 0.0 | 4.0 | 0.00 | 0.00 | 0.00 | 52 | 1011.5 |
| 20260504023048 | 51 | 233 | 2.0 | 4.0 | 0.00 | 0.00 | 0.00 | 51 | 1011.5 |
| 20260504021544 | 52 | 193 | 3.0 | 7.0 | 0.00 | 0.00 | 0.00 | 50 | 1011.5 |
| 20260504020044 | 52 | 194 | 3.0 | 6.0 | 0.00 | 0.00 | 0.00 | 50 | 1011.4 |
| 20260504014544 | 53 | 197 | 4.0 | 7.0 | 0.00 | 0.00 | 0.00 | 48 | 1011.4 |
| 20260504013040 | 54 | 186 | 4.0 | 8.0 | 0.00 | 0.00 | 0.00 | 48 | 1011.3 |
| 20260504011539 | 54 | 189 | 5.0 | 9.0 | 0.00 | 0.00 | 0.00 | 47 | 1011.2 |
| 20260504010047 | 55 | 193 | 7.0 | 11.0 | 0.00 | 0.00 | 0.00 | 45 | 1011.2 |
| 20260504004547 | 55 | 202 | 5.0 | 9.0 | 0.00 | 0.00 | 0.00 | 46 | 1011.1 |
| 20260504003048 | 56 | 226 | 6.0 | 10.0 | 0.00 | 0.00 | 0.00 | 44 | 1010.8 |
| 20260504001544 | 56 | 193 | 6.0 | 10.0 | 0.00 | 0.00 | 0.00 | 43 | 1010.8 |
| 20260504000106 | 58 | 214 | 6.0 | 10.0 | 0.00 | 0.00 | 0.00 | 40 | 1010.6 |
| 20260503234553 | 58 | 231 | 8.0 | 14.0 | 0.00 | 0.00 | 0.00 | 38 | 1010.5 |
| 20260503233043 | 59 | 210 | 6.0 | 14.0 | 0.00 | 0.00 | 0.00 | 37 | 1010.4 |
| 20260503231542 | 59 | 214 | 8.0 | 15.0 | 0.00 | 0.00 | 0.00 | 36 | 1010.4 |
| 20260503230041 | 59 | 227 | 8.0 | 16.0 | 0.00 | 0.00 | 0.00 | 37 | 1010.5 |
| 20260503224541 | 60 | 219 | 7.0 | 17.0 | 0.00 | 0.00 | 0.00 | 36 | 1010.4 |
| 20260503223046 | 60 | 248 | 7.0 | 18.0 | 0.00 | 0.00 | 0.00 | 34 | 1010.3 |
| 20260503221551 | 60 | 281 | 6.0 | 17.0 | 0.00 | 0.00 | 0.00 | 35 | 1010.3 |
| 20260503220047 | 61 | 215 | 8.0 | 14.0 | 0.00 | 0.00 | 0.00 | 34 | 1010.4 |
| 20260503214543 | 60 | 239 | 9.0 | 20.0 | 0.00 | 0.00 | 0.00 | 35 | 1010.4 |
| 20260503213041 | 60 | 219 | 8.0 | 20.0 | 0.00 | 0.00 | 0.00 | 35 | 1010.2 |
| 20260503211540 | 61 | 215 | 9.0 | 18.0 | 0.00 | 0.00 | 0.00 | 34 | 1010.0 |
| 20260503210045 | 60 | 219 | 9.0 | 18.0 | 0.00 | 0.00 | 0.00 | 34 | 1010.1 |
| 20260503204545 | 60 | 236 | 9.0 | 23.0 | 0.00 | 0.00 | 0.00 | 34 | 1010.1 |
| 20260503203057 | 60 | 271 | 9.0 | 22.0 | 0.00 | 0.00 | 0.00 | 32 | 1010.2 |
| 20260503201543 | 61 | 196 | 10.0 | 19.0 | 0.00 | 0.00 | 0.00 | 33 | 1010.1 |
| 20260503200050 | 61 | 190 | 9.0 | 17.0 | 0.00 | 0.00 | 0.00 | 32 | 1010.3 |
| 20260503194550 | 60 | 264 | 10.0 | 19.0 | 0.00 | 0.00 | 0.00 | 32 | 1010.5 |
| 20260503193044 | 59 | 254 | 8.0 | 22.0 | 0.00 | 0.00 | 0.00 | 34 | 1010.9 |
| 20260503191542 | 59 | 261 | 11.0 | 22.0 | 0.00 | 0.00 | 0.00 | 33 | 1010.9 |
| 20260503190044 | 60 | 217 | 9.0 | 22.0 | 0.00 | 0.00 | 0.00 | 33 | 1011.1 |
| 20260503184549 | 59 | 229 | 7.0 | 15.0 | 0.00 | 0.00 | 0.00 | 33 | 1011.0 |
| 20260503183045 | 58 | 255 | 9.0 | 18.0 | 0.00 | 0.00 | 0.00 | 34 | 1011.3 |
| 20260503181541 | 58 | 241 | 7.0 | 11.0 | 0.00 | 0.00 | 0.00 | 33 | 1011.4 |
| 20260503180042 | 58 | 276 | 9.0 | 16.0 | 0.00 | 0.00 | 0.00 | 32 | 1011.5 |
| 20260503174541 | 57 | 310 | 7.0 | 16.0 | 0.00 | 0.00 | 0.00 | 34 | 1011.8 |
| 20260503173054 | 56 | 280 | 9.0 | 14.0 | 0.00 | 0.00 | 0.00 | 34 | 1012.1 |
| 20260503171542 | 55 | 251 | 9.0 | 17.0 | 0.00 | 0.00 | 0.00 | 37 | 1012.2 |
| 20260503081548 | 41 | 0 | 2.0 | 4.0 | 0.00 | 0.00 | 0.00 | 66 | 1012.4 |
| 20260503071549 | 42 | 360 | 3.0 | 8.0 | 0.00 | 0.00 | 0.00 | 64 | 1011.9 |
| 20260503054540 | 44 | 352 | 4.0 | 8.0 | 0.00 | 0.01 | 0.00 | 61 | 1012.1 |
| 20260503053042 | 45 | 334 | 4.0 | 9.0 | 0.00 | 0.01 | 0.00 | 59 | 1012.1 |
| 20260503051544 | 45 | 347 | 3.0 | 6.0 | 0.00 | 0.01 | 0.00 | 58 | 1012.2 |
| 20260503050044 | 45 | 299 | 3.0 | 5.0 | 0.00 | 0.01 | 0.00 | 58 | 1012.4 |